sensor_id;sensor_type;location;lat;lon;timestamp;temperature;humidity
42187;DHT22;27858;51.414;0.018;2023-05-07T00:00:35;13.50;99.90
42187;DHT22;27858;51.414;0.018;2023-05-07T00:03:02;13.50;99.90
42187;DHT22;27858;51.414;0.018;2023-05-07T00:05:29;13.50;99.90
42187;DHT22;27858;51.414;0.018;2023-05-07T00:07:56;13.50;99.90
42187;DHT22;27858;51.414;0.018;2023-05-07T00:10:25;13.50;99.90
42187;DHT22;27858;51.414;0.018;2023-05-07T00:12:52;13.50;99.90
42187;DHT22;27858;51.414;0.018;2023-05-07T00:15:19;13.50;99.90
42187;DHT22;27858;51.414;0.018;2023-05-07T00:17:46;13.60;99.90
42187;DHT22;27858;51.414;0.018;2023-05-07T00:20:13;13.50;99.90
42187;DHT22;27858;51.414;0.018;2023-05-07T00:22:40;13.50;99.90
42187;DHT22;27858;51.414;0.018;2023-05-07T00:25:07;13.60;99.90
42187;DHT22;27858;51.414;0.018;2023-05-07T00:27:34;13.60;99.90
42187;DHT22;27858;51.414;0.018;2023-05-07T00:30:01;13.60;99.90
42187;DHT22;27858;51.414;0.018;2023-05-07T00:32:27;13.60;99.90
42187;DHT22;27858;51.414;0.018;2023-05-07T00:34:54;13.60;99.90
42187;DHT22;27858;51.414;0.018;2023-05-07T00:37:22;13.60;99.90
42187;DHT22;27858;51.414;0.018;2023-05-07T00:39:48;13.60;99.90
42187;DHT22;27858;51.414;0.018;2023-05-07T00:42:15;13.50;99.90
42187;DHT22;27858;51.414;0.018;2023-05-07T00:44:42;13.60;99.90
42187;DHT22;27858;51.414;0.018;2023-05-07T00:47:09;13.60;99.90
42187;DHT22;27858;51.414;0.018;2023-05-07T00:49:42;13.50;99.90
42187;DHT22;27858;51.414;0.018;2023-05-07T00:52:15;13.50;99.90
42187;DHT22;27858;51.414;0.018;2023-05-07T00:54:42;13.50;99.90
42187;DHT22;27858;51.414;0.018;2023-05-07T00:57:10;13.50;99.90
42187;DHT22;27858;51.414;0.018;2023-05-07T00:59:38;13.50;99.90
42187;DHT22;27858;51.414;0.018;2023-05-07T01:02:06;13.50;99.90
42187;DHT22;27858;51.414;0.018;2023-05-07T01:04:33;13.50;99.90
42187;DHT22;27858;51.414;0.018;2023-05-07T01:07:01;13.50;99.90
42187;DHT22;27858;51.414;0.018;2023-05-07T01:09:29;13.40;99.90
42187;DHT22;27858;51.414;0.018;2023-05-07T01:11:56;13.40;99.90
42187;DHT22;27858;51.414;0.018;2023-05-07T01:14:24;13.50;99.90
42187;DHT22;27858;51.414;0.018;2023-05-07T01:16:52;13.40;99.90
42187;DHT22;27858;51.414;0.018;2023-05-07T01:19:20;13.40;99.90
42187;DHT22;27858;51.414;0.018;2023-05-07T01:21:48;13.30;99.90
42187;DHT22;27858;51.414;0.018;2023-05-07T01:24:15;13.40;99.90
42187;DHT22;27858;51.414;0.018;2023-05-07T01:26:43;13.30;99.90
42187;DHT22;27858;51.414;0.018;2023-05-07T01:29:11;13.30;99.90
42187;DHT22;27858;51.414;0.018;2023-05-07T01:31:39;13.30;99.90
42187;DHT22;27858;51.414;0.018;2023-05-07T01:34:08;13.30;99.90
42187;DHT22;27858;51.414;0.018;2023-05-07T01:36:37;13.30;99.90
42187;DHT22;27858;51.414;0.018;2023-05-07T01:39:06;13.20;99.90
42187;DHT22;27858;51.414;0.018;2023-05-07T01:41:34;13.20;99.90
42187;DHT22;27858;51.414;0.018;2023-05-07T01:44:03;13.10;99.90
42187;DHT22;27858;51.414;0.018;2023-05-07T01:46:31;13.10;99.90
42187;DHT22;27858;51.414;0.018;2023-05-07T01:48:58;13.10;99.90
42187;DHT22;27858;51.414;0.018;2023-05-07T01:51:25;13.00;99.90
42187;DHT22;27858;51.414;0.018;2023-05-07T01:53:53;13.00;99.90
42187;DHT22;27858;51.414;0.018;2023-05-07T01:56:20;12.90;99.90
42187;DHT22;27858;51.414;0.018;2023-05-07T01:58:47;12.80;99.90
42187;DHT22;27858;51.414;0.018;2023-05-07T02:01:14;12.80;99.90
42187;DHT22;27858;51.414;0.018;2023-05-07T02:03:41;12.70;99.90
42187;DHT22;27858;51.414;0.018;2023-05-07T02:06:08;12.70;99.90
42187;DHT22;27858;51.414;0.018;2023-05-07T02:08:35;12.70;99.90
42187;DHT22;27858;51.414;0.018;2023-05-07T02:11:02;12.70;99.90
42187;DHT22;27858;51.414;0.018;2023-05-07T02:13:31;12.60;99.90
42187;DHT22;27858;51.414;0.018;2023-05-07T02:15:58;12.60;99.90
42187;DHT22;27858;51.414;0.018;2023-05-07T02:18:25;12.50;99.90
42187;DHT22;27858;51.414;0.018;2023-05-07T02:20:51;12.50;99.90
42187;DHT22;27858;51.414;0.018;2023-05-07T02:23:18;12.60;99.90
42187;DHT22;27858;51.414;0.018;2023-05-07T02:25:45;12.60;99.90
42187;DHT22;27858;51.414;0.018;2023-05-07T02:28:12;12.60;99.90
42187;DHT22;27858;51.414;0.018;2023-05-07T02:30:39;12.70;99.90
42187;DHT22;27858;51.414;0.018;2023-05-07T02:33:07;12.60;99.90
42187;DHT22;27858;51.414;0.018;2023-05-07T02:35:35;12.70;99.90
42187;DHT22;27858;51.414;0.018;2023-05-07T02:38:02;12.70;99.90
42187;DHT22;27858;51.414;0.018;2023-05-07T02:40:32;12.70;99.90
42187;DHT22;27858;51.414;0.018;2023-05-07T02:43:00;12.70;99.90
42187;DHT22;27858;51.414;0.018;2023-05-07T02:45:27;12.60;99.90
42187;DHT22;27858;51.414;0.018;2023-05-07T02:47:54;12.70;99.90
42187;DHT22;27858;51.414;0.018;2023-05-07T02:50:21;12.70;99.90
42187;DHT22;27858;51.414;0.018;2023-05-07T02:52:48;12.70;99.90
42187;DHT22;27858;51.414;0.018;2023-05-07T02:55:15;12.70;99.90
42187;DHT22;27858;51.414;0.018;2023-05-07T02:57:41;12.70;99.90
42187;DHT22;27858;51.414;0.018;2023-05-07T03:00:16;12.70;99.90
42187;DHT22;27858;51.414;0.018;2023-05-07T03:02:47;12.70;99.90
42187;DHT22;27858;51.414;0.018;2023-05-07T03:05:13;12.80;99.90
42187;DHT22;27858;51.414;0.018;2023-05-07T03:07:41;12.70;99.90
42187;DHT22;27858;51.414;0.018;2023-05-07T03:10:11;12.80;99.90
42187;DHT22;27858;51.414;0.018;2023-05-07T03:12:38;12.70;99.90
42187;DHT22;27858;51.414;0.018;2023-05-07T03:15:06;12.70;99.90
42187;DHT22;27858;51.414;0.018;2023-05-07T03:17:33;12.70;99.90
42187;DHT22;27858;51.414;0.018;2023-05-07T03:20:00;12.70;99.90
42187;DHT22;27858;51.414;0.018;2023-05-07T03:22:26;12.80;99.90
42187;DHT22;27858;51.414;0.018;2023-05-07T03:24:53;12.70;99.90
42187;DHT22;27858;51.414;0.018;2023-05-07T03:27:20;12.70;99.90
42187;DHT22;27858;51.414;0.018;2023-05-07T03:29:47;12.70;99.90
42187;DHT22;27858;51.414;0.018;2023-05-07T03:32:14;12.70;99.90
42187;DHT22;27858;51.414;0.018;2023-05-07T03:34:41;12.80;99.90
42187;DHT22;27858;51.414;0.018;2023-05-07T03:37:07;12.70;99.90
42187;DHT22;27858;51.414;0.018;2023-05-07T03:39:34;12.80;99.90
42187;DHT22;27858;51.414;0.018;2023-05-07T03:42:01;12.70;99.90
42187;DHT22;27858;51.414;0.018;2023-05-07T03:44:28;12.70;99.90
42187;DHT22;27858;51.414;0.018;2023-05-07T03:46:55;12.70;99.90
42187;DHT22;27858;51.414;0.018;2023-05-07T03:49:22;12.70;99.90
42187;DHT22;27858;51.414;0.018;2023-05-07T03:51:49;12.70;99.90
42187;DHT22;27858;51.414;0.018;2023-05-07T03:54:15;12.70;99.90
42187;DHT22;27858;51.414;0.018;2023-05-07T03:56:42;12.70;99.90
42187;DHT22;27858;51.414;0.018;2023-05-07T03:59:09;12.70;99.90
42187;DHT22;27858;51.414;0.018;2023-05-07T04:01:36;12.70;99.90
42187;DHT22;27858;51.414;0.018;2023-05-07T04:04:02;12.70;99.90
42187;DHT22;27858;51.414;0.018;2023-05-07T04:06:30;12.70;99.90
42187;DHT22;27858;51.414;0.018;2023-05-07T04:08:58;12.70;99.90
42187;DHT22;27858;51.414;0.018;2023-05-07T04:11:25;12.60;99.90
42187;DHT22;27858;51.414;0.018;2023-05-07T04:13:52;12.60;99.90
42187;DHT22;27858;51.414;0.018;2023-05-07T04:16:18;12.70;99.90
42187;DHT22;27858;51.414;0.018;2023-05-07T04:18:45;12.70;99.90
42187;DHT22;27858;51.414;0.018;2023-05-07T04:21:19;12.70;99.90
42187;DHT22;27858;51.414;0.018;2023-05-07T04:23:47;12.70;99.90
42187;DHT22;27858;51.414;0.018;2023-05-07T04:26:14;12.70;99.90
42187;DHT22;27858;51.414;0.018;2023-05-07T04:28:41;12.70;99.90
42187;DHT22;27858;51.414;0.018;2023-05-07T04:31:08;12.70;99.90
42187;DHT22;27858;51.414;0.018;2023-05-07T04:33:35;12.60;99.90
42187;DHT22;27858;51.414;0.018;2023-05-07T04:36:02;12.60;99.90
42187;DHT22;27858;51.414;0.018;2023-05-07T04:38:31;12.70;99.90
42187;DHT22;27858;51.414;0.018;2023-05-07T04:41:04;12.70;99.90
42187;DHT22;27858;51.414;0.018;2023-05-07T04:43:32;12.70;99.90
42187;DHT22;27858;51.414;0.018;2023-05-07T04:45:58;12.60;99.90
42187;DHT22;27858;51.414;0.018;2023-05-07T04:48:26;12.70;99.90
42187;DHT22;27858;51.414;0.018;2023-05-07T04:50:53;12.70;99.90
42187;DHT22;27858;51.414;0.018;2023-05-07T04:53:19;12.70;99.90
42187;DHT22;27858;51.414;0.018;2023-05-07T04:55:46;12.70;99.90
42187;DHT22;27858;51.414;0.018;2023-05-07T04:58:13;12.70;99.90
42187;DHT22;27858;51.414;0.018;2023-05-07T05:00:40;12.70;99.90
42187;DHT22;27858;51.414;0.018;2023-05-07T05:03:07;12.60;99.90
42187;DHT22;27858;51.414;0.018;2023-05-07T05:05:34;12.70;99.90
42187;DHT22;27858;51.414;0.018;2023-05-07T05:08:01;12.70;99.90
42187;DHT22;27858;51.414;0.018;2023-05-07T05:10:27;12.70;99.90
42187;DHT22;27858;51.414;0.018;2023-05-07T05:12:56;12.70;99.90
42187;DHT22;27858;51.414;0.018;2023-05-07T05:15:23;12.70;99.90
42187;DHT22;27858;51.414;0.018;2023-05-07T05:17:50;12.70;99.90
42187;DHT22;27858;51.414;0.018;2023-05-07T05:20:17;12.70;99.90
42187;DHT22;27858;51.414;0.018;2023-05-07T05:22:44;12.70;99.90
42187;DHT22;27858;51.414;0.018;2023-05-07T05:25:11;12.70;99.90
42187;DHT22;27858;51.414;0.018;2023-05-07T05:27:37;12.80;99.90
42187;DHT22;27858;51.414;0.018;2023-05-07T05:30:04;12.80;99.90
42187;DHT22;27858;51.414;0.018;2023-05-07T05:32:32;12.80;99.90
42187;DHT22;27858;51.414;0.018;2023-05-07T05:35:00;12.80;99.90
42187;DHT22;27858;51.414;0.018;2023-05-07T05:37:27;12.80;99.90
42187;DHT22;27858;51.414;0.018;2023-05-07T05:39:53;12.80;99.90
42187;DHT22;27858;51.414;0.018;2023-05-07T05:42:21;12.80;99.90
42187;DHT22;27858;51.414;0.018;2023-05-07T05:44:48;12.80;99.90
42187;DHT22;27858;51.414;0.018;2023-05-07T05:47:14;12.80;99.90
42187;DHT22;27858;51.414;0.018;2023-05-07T05:49:41;12.80;99.90
42187;DHT22;27858;51.414;0.018;2023-05-07T05:52:12;12.80;99.90
42187;DHT22;27858;51.414;0.018;2023-05-07T05:54:40;12.80;99.90
42187;DHT22;27858;51.414;0.018;2023-05-07T05:57:07;12.90;99.90
42187;DHT22;27858;51.414;0.018;2023-05-07T05:59:34;12.90;99.90
42187;DHT22;27858;51.414;0.018;2023-05-07T06:02:01;12.90;99.90
42187;DHT22;27858;51.414;0.018;2023-05-07T06:04:28;12.90;99.90
42187;DHT22;27858;51.414;0.018;2023-05-07T06:06:55;12.90;99.90
42187;DHT22;27858;51.414;0.018;2023-05-07T06:09:23;12.90;99.90
42187;DHT22;27858;51.414;0.018;2023-05-07T06:11:50;13.00;99.90
42187;DHT22;27858;51.414;0.018;2023-05-07T06:14:16;12.90;99.90
42187;DHT22;27858;51.414;0.018;2023-05-07T06:16:44;12.90;99.90
42187;DHT22;27858;51.414;0.018;2023-05-07T06:19:10;12.90;99.90
42187;DHT22;27858;51.414;0.018;2023-05-07T06:21:38;12.90;99.90
42187;DHT22;27858;51.414;0.018;2023-05-07T06:24:06;12.90;99.90
42187;DHT22;27858;51.414;0.018;2023-05-07T06:26:33;13.00;99.90
42187;DHT22;27858;51.414;0.018;2023-05-07T06:28:59;13.00;99.90
42187;DHT22;27858;51.414;0.018;2023-05-07T06:31:29;13.00;99.90
42187;DHT22;27858;51.414;0.018;2023-05-07T06:33:57;13.00;99.90
42187;DHT22;27858;51.414;0.018;2023-05-07T06:36:25;13.00;99.90
42187;DHT22;27858;51.414;0.018;2023-05-07T06:38:52;13.00;99.90
42187;DHT22;27858;51.414;0.018;2023-05-07T06:41:19;13.00;99.90
42187;DHT22;27858;51.414;0.018;2023-05-07T06:43:47;13.00;99.90
42187;DHT22;27858;51.414;0.018;2023-05-07T06:46:13;13.00;99.90
42187;DHT22;27858;51.414;0.018;2023-05-07T06:48:40;12.90;99.90
42187;DHT22;27858;51.414;0.018;2023-05-07T06:51:07;12.90;99.90
42187;DHT22;27858;51.414;0.018;2023-05-07T06:53:35;12.90;99.90
42187;DHT22;27858;51.414;0.018;2023-05-07T06:56:02;13.00;99.90
42187;DHT22;27858;51.414;0.018;2023-05-07T06:58:29;13.10;99.90
42187;DHT22;27858;51.414;0.018;2023-05-07T07:00:56;13.00;99.90
42187;DHT22;27858;51.414;0.018;2023-05-07T07:03:22;12.90;99.90
42187;DHT22;27858;51.414;0.018;2023-05-07T07:05:53;13.00;99.90
42187;DHT22;27858;51.414;0.018;2023-05-07T07:08:20;13.00;99.90
42187;DHT22;27858;51.414;0.018;2023-05-07T07:10:48;13.00;99.90
42187;DHT22;27858;51.414;0.018;2023-05-07T07:13:14;13.10;99.90
42187;DHT22;27858;51.414;0.018;2023-05-07T07:15:42;13.10;99.90
42187;DHT22;27858;51.414;0.018;2023-05-07T07:18:09;13.10;99.90
42187;DHT22;27858;51.414;0.018;2023-05-07T07:20:36;13.20;99.90
42187;DHT22;27858;51.414;0.018;2023-05-07T07:23:02;13.30;99.90
42187;DHT22;27858;51.414;0.018;2023-05-07T07:25:29;13.30;99.90
42187;DHT22;27858;51.414;0.018;2023-05-07T07:27:56;13.30;99.90
42187;DHT22;27858;51.414;0.018;2023-05-07T07:30:23;13.30;99.90
42187;DHT22;27858;51.414;0.018;2023-05-07T07:32:50;13.40;99.90
42187;DHT22;27858;51.414;0.018;2023-05-07T07:35:18;13.40;99.90
42187;DHT22;27858;51.414;0.018;2023-05-07T07:37:45;13.40;99.90
42187;DHT22;27858;51.414;0.018;2023-05-07T07:40:12;13.40;99.90
42187;DHT22;27858;51.414;0.018;2023-05-07T07:42:39;13.40;99.90
42187;DHT22;27858;51.414;0.018;2023-05-07T07:45:06;13.50;99.90
42187;DHT22;27858;51.414;0.018;2023-05-07T07:47:33;13.60;99.90
42187;DHT22;27858;51.414;0.018;2023-05-07T07:50:00;13.60;99.90
42187;DHT22;27858;51.414;0.018;2023-05-07T07:52:27;13.60;99.90
42187;DHT22;27858;51.414;0.018;2023-05-07T07:54:53;13.60;99.90
42187;DHT22;27858;51.414;0.018;2023-05-07T07:57:20;13.60;99.90
42187;DHT22;27858;51.414;0.018;2023-05-07T07:59:47;13.60;99.90
42187;DHT22;27858;51.414;0.018;2023-05-07T08:02:13;13.70;99.90
42187;DHT22;27858;51.414;0.018;2023-05-07T08:04:40;13.70;99.90
42187;DHT22;27858;51.414;0.018;2023-05-07T08:07:08;13.80;99.90
42187;DHT22;27858;51.414;0.018;2023-05-07T08:09:36;13.90;99.90
42187;DHT22;27858;51.414;0.018;2023-05-07T08:12:03;13.80;99.90
42187;DHT22;27858;51.414;0.018;2023-05-07T08:14:30;13.90;99.90
42187;DHT22;27858;51.414;0.018;2023-05-07T08:16:57;13.90;99.90
42187;DHT22;27858;51.414;0.018;2023-05-07T08:19:24;14.00;99.90
42187;DHT22;27858;51.414;0.018;2023-05-07T08:21:51;13.90;99.90
42187;DHT22;27858;51.414;0.018;2023-05-07T08:24:18;14.00;99.90
42187;DHT22;27858;51.414;0.018;2023-05-07T08:26:44;14.10;99.90
42187;DHT22;27858;51.414;0.018;2023-05-07T08:29:13;14.10;99.90
42187;DHT22;27858;51.414;0.018;2023-05-07T08:31:40;14.10;99.90
42187;DHT22;27858;51.414;0.018;2023-05-07T08:34:07;14.10;99.90
42187;DHT22;27858;51.414;0.018;2023-05-07T08:36:35;14.20;99.90
42187;DHT22;27858;51.414;0.018;2023-05-07T08:39:02;14.30;99.90
42187;DHT22;27858;51.414;0.018;2023-05-07T08:41:29;14.40;99.90
42187;DHT22;27858;51.414;0.018;2023-05-07T08:43:58;14.40;99.90
42187;DHT22;27858;51.414;0.018;2023-05-07T08:46:37;14.50;99.90
42187;DHT22;27858;51.414;0.018;2023-05-07T08:49:05;14.70;99.90
42187;DHT22;27858;51.414;0.018;2023-05-07T08:51:33;14.80;99.90
42187;DHT22;27858;51.414;0.018;2023-05-07T08:54:01;14.90;99.90
42187;DHT22;27858;51.414;0.018;2023-05-07T08:56:28;14.90;99.90
42187;DHT22;27858;51.414;0.018;2023-05-07T08:58:54;14.90;99.90
42187;DHT22;27858;51.414;0.018;2023-05-07T09:01:25;15.10;99.90
42187;DHT22;27858;51.414;0.018;2023-05-07T09:03:53;15.20;99.90
42187;DHT22;27858;51.414;0.018;2023-05-07T09:06:20;15.30;99.90
42187;DHT22;27858;51.414;0.018;2023-05-07T09:08:51;15.50;99.90
42187;DHT22;27858;51.414;0.018;2023-05-07T09:11:22;15.50;99.90
42187;DHT22;27858;51.414;0.018;2023-05-07T09:13:54;15.50;99.90
42187;DHT22;27858;51.414;0.018;2023-05-07T09:16:22;15.50;99.90
42187;DHT22;27858;51.414;0.018;2023-05-07T09:18:52;15.70;99.90
42187;DHT22;27858;51.414;0.018;2023-05-07T09:21:20;15.80;99.90
42187;DHT22;27858;51.414;0.018;2023-05-07T09:23:51;16.00;99.90
42187;DHT22;27858;51.414;0.018;2023-05-07T09:26:21;16.20;99.90
42187;DHT22;27858;51.414;0.018;2023-05-07T09:28:48;16.20;99.90
42187;DHT22;27858;51.414;0.018;2023-05-07T09:31:17;16.40;99.90
42187;DHT22;27858;51.414;0.018;2023-05-07T09:33:47;16.50;99.90
42187;DHT22;27858;51.414;0.018;2023-05-07T09:36:14;16.50;99.90
42187;DHT22;27858;51.414;0.018;2023-05-07T09:38:41;16.70;99.90
42187;DHT22;27858;51.414;0.018;2023-05-07T09:41:12;16.90;99.90
42187;DHT22;27858;51.414;0.018;2023-05-07T09:43:39;16.90;99.90
42187;DHT22;27858;51.414;0.018;2023-05-07T09:46:14;16.90;99.90
42187;DHT22;27858;51.414;0.018;2023-05-07T09:48:43;17.00;99.90
42187;DHT22;27858;51.414;0.018;2023-05-07T09:51:28;16.90;99.90
42187;DHT22;27858;51.414;0.018;2023-05-07T09:53:57;16.80;99.90
42187;DHT22;27858;51.414;0.018;2023-05-07T09:56:24;16.70;99.90
42187;DHT22;27858;51.414;0.018;2023-05-07T09:58:54;16.60;99.90
42187;DHT22;27858;51.414;0.018;2023-05-07T10:01:23;16.60;99.90
42187;DHT22;27858;51.414;0.018;2023-05-07T10:03:52;16.60;99.90
42187;DHT22;27858;51.414;0.018;2023-05-07T10:06:20;16.60;99.90
42187;DHT22;27858;51.414;0.018;2023-05-07T10:08:48;16.70;99.90
42187;DHT22;27858;51.414;0.018;2023-05-07T10:11:16;16.90;99.90
42187;DHT22;27858;51.414;0.018;2023-05-07T10:13:43;16.90;99.90
42187;DHT22;27858;51.414;0.018;2023-05-07T10:16:10;16.90;99.90
42187;DHT22;27858;51.414;0.018;2023-05-07T10:18:38;16.90;99.90
42187;DHT22;27858;51.414;0.018;2023-05-07T10:21:16;16.90;99.90
42187;DHT22;27858;51.414;0.018;2023-05-07T10:24:01;16.90;99.90
42187;DHT22;27858;51.414;0.018;2023-05-07T10:26:32;16.80;99.90
42187;DHT22;27858;51.414;0.018;2023-05-07T10:29:35;16.80;99.90
42187;DHT22;27858;51.414;0.018;2023-05-07T10:32:49;16.80;99.90
42187;DHT22;27858;51.414;0.018;2023-05-07T10:35:17;16.80;99.90
42187;DHT22;27858;51.414;0.018;2023-05-07T10:37:46;16.70;99.90
42187;DHT22;27858;51.414;0.018;2023-05-07T10:40:13;16.70;99.90
42187;DHT22;27858;51.414;0.018;2023-05-07T10:42:57;16.70;99.90
42187;DHT22;27858;51.414;0.018;2023-05-07T10:45:25;17.00;99.90
42187;DHT22;27858;51.414;0.018;2023-05-07T10:48:07;17.10;99.90
42187;DHT22;27858;51.414;0.018;2023-05-07T10:51:22;17.00;99.90
42187;DHT22;27858;51.414;0.018;2023-05-07T10:53:54;17.20;99.90
42187;DHT22;27858;51.414;0.018;2023-05-07T10:56:36;17.30;99.90
42187;DHT22;27858;51.414;0.018;2023-05-07T11:02:04;17.30;99.90
42187;DHT22;27858;51.414;0.018;2023-05-07T11:04:33;17.30;99.90
42187;DHT22;27858;51.414;0.018;2023-05-07T11:15:12;18.00;99.90
42187;DHT22;27858;51.414;0.018;2023-05-07T11:17:56;17.60;99.90
42187;DHT22;27858;51.414;0.018;2023-05-07T11:20:49;17.30;99.90
42187;DHT22;27858;51.414;0.018;2023-05-07T11:26:09;17.60;99.90
42187;DHT22;27858;51.414;0.018;2023-05-07T11:28:37;17.60;99.90
42187;DHT22;27858;51.414;0.018;2023-05-07T11:31:05;17.60;99.90
42187;DHT22;27858;51.414;0.018;2023-05-07T11:33:32;17.80;99.90
42187;DHT22;27858;51.414;0.018;2023-05-07T11:36:01;17.90;99.90
42187;DHT22;27858;51.414;0.018;2023-05-07T11:38:30;17.60;99.90
42187;DHT22;27858;51.414;0.018;2023-05-07T11:40:58;17.50;99.90
42187;DHT22;27858;51.414;0.018;2023-05-07T11:43:32;17.50;99.90
42187;DHT22;27858;51.414;0.018;2023-05-07T11:46:12;17.50;99.90
42187;DHT22;27858;51.414;0.018;2023-05-07T11:48:40;17.50;99.90
42187;DHT22;27858;51.414;0.018;2023-05-07T11:51:08;17.40;99.90
42187;DHT22;27858;51.414;0.018;2023-05-07T11:53:40;17.50;99.90
42187;DHT22;27858;51.414;0.018;2023-05-07T11:56:09;17.60;99.90
42187;DHT22;27858;51.414;0.018;2023-05-07T11:58:36;17.50;99.90
42187;DHT22;27858;51.414;0.018;2023-05-07T12:01:03;17.40;99.90
42187;DHT22;27858;51.414;0.018;2023-05-07T12:03:30;17.40;99.90
42187;DHT22;27858;51.414;0.018;2023-05-07T12:06:01;17.70;99.90
42187;DHT22;27858;51.414;0.018;2023-05-07T12:08:28;17.70;99.90
42187;DHT22;27858;51.414;0.018;2023-05-07T12:10:55;17.70;99.90
42187;DHT22;27858;51.414;0.018;2023-05-07T12:13:24;17.70;99.90
42187;DHT22;27858;51.414;0.018;2023-05-07T12:15:52;17.70;99.90
42187;DHT22;27858;51.414;0.018;2023-05-07T12:18:20;17.70;99.90
42187;DHT22;27858;51.414;0.018;2023-05-07T12:20:48;17.70;99.90
42187;DHT22;27858;51.414;0.018;2023-05-07T12:23:15;17.80;99.90
42187;DHT22;27858;51.414;0.018;2023-05-07T12:25:42;18.00;99.90
42187;DHT22;27858;51.414;0.018;2023-05-07T12:28:14;18.20;99.90
42187;DHT22;27858;51.414;0.018;2023-05-07T12:30:45;18.60;99.90
42187;DHT22;27858;51.414;0.018;2023-05-07T12:33:17;18.50;99.90
42187;DHT22;27858;51.414;0.018;2023-05-07T12:35:43;18.50;99.90
42187;DHT22;27858;51.414;0.018;2023-05-07T12:38:15;18.70;99.90
42187;DHT22;27858;51.414;0.018;2023-05-07T12:40:49;18.50;99.90
42187;DHT22;27858;51.414;0.018;2023-05-07T12:43:21;18.70;99.90
42187;DHT22;27858;51.414;0.018;2023-05-07T12:45:51;18.70;99.90
42187;DHT22;27858;51.414;0.018;2023-05-07T12:48:20;18.40;99.90
42187;DHT22;27858;51.414;0.018;2023-05-07T12:50:51;18.30;99.90
42187;DHT22;27858;51.414;0.018;2023-05-07T12:53:21;18.30;99.90
42187;DHT22;27858;51.414;0.018;2023-05-07T12:55:50;18.40;99.90
42187;DHT22;27858;51.414;0.018;2023-05-07T13:00:52;18.60;99.90
42187;DHT22;27858;51.414;0.018;2023-05-07T13:03:24;18.70;99.90
42187;DHT22;27858;51.414;0.018;2023-05-07T13:05:52;18.90;99.90
42187;DHT22;27858;51.414;0.018;2023-05-07T13:08:37;19.20;99.90
42187;DHT22;27858;51.414;0.018;2023-05-07T13:11:08;19.10;99.90
42187;DHT22;27858;51.414;0.018;2023-05-07T13:13:37;19.20;99.90
42187;DHT22;27858;51.414;0.018;2023-05-07T13:16:05;19.00;99.90
42187;DHT22;27858;51.414;0.018;2023-05-07T13:18:33;19.00;99.90
42187;DHT22;27858;51.414;0.018;2023-05-07T13:21:00;18.70;99.90
42187;DHT22;27858;51.414;0.018;2023-05-07T13:23:28;18.80;99.90
42187;DHT22;27858;51.414;0.018;2023-05-07T13:25:55;19.00;99.90
42187;DHT22;27858;51.414;0.018;2023-05-07T13:28:24;19.10;99.90
42187;DHT22;27858;51.414;0.018;2023-05-07T13:30:50;18.90;99.90
42187;DHT22;27858;51.414;0.018;2023-05-07T13:33:21;18.80;99.90
42187;DHT22;27858;51.414;0.018;2023-05-07T13:35:48;19.00;99.90
42187;DHT22;27858;51.414;0.018;2023-05-07T13:38:15;19.30;99.90
42187;DHT22;27858;51.414;0.018;2023-05-07T13:40:42;19.60;99.90
42187;DHT22;27858;51.414;0.018;2023-05-07T13:43:09;19.90;99.90
42187;DHT22;27858;51.414;0.018;2023-05-07T13:45:37;19.80;99.90
42187;DHT22;27858;51.414;0.018;2023-05-07T13:48:04;19.60;99.90
42187;DHT22;27858;51.414;0.018;2023-05-07T13:50:31;19.30;99.90
42187;DHT22;27858;51.414;0.018;2023-05-07T13:52:57;19.40;99.90
42187;DHT22;27858;51.414;0.018;2023-05-07T13:55:25;19.30;99.90
42187;DHT22;27858;51.414;0.018;2023-05-07T13:58:00;19.30;99.90
42187;DHT22;27858;51.414;0.018;2023-05-07T14:00:28;19.40;99.90
42187;DHT22;27858;51.414;0.018;2023-05-07T14:02:56;19.80;69.40
42187;DHT22;27858;51.414;0.018;2023-05-07T14:05:23;19.90;59.30
42187;DHT22;27858;51.414;0.018;2023-05-07T14:07:51;20.00;65.30
42187;DHT22;27858;51.414;0.018;2023-05-07T14:10:19;20.40;40.90
42187;DHT22;27858;51.414;0.018;2023-05-07T14:12:46;20.50;14.10
42187;DHT22;27858;51.414;0.018;2023-05-07T14:15:13;20.50;15.00
42187;DHT22;27858;51.414;0.018;2023-05-07T14:17:40;20.20;9.60
42187;DHT22;27858;51.414;0.018;2023-05-07T14:20:08;20.20;1.00
42187;DHT22;27858;51.414;0.018;2023-05-07T14:22:35;20.90;3.20
42187;DHT22;27858;51.414;0.018;2023-05-07T14:25:02;21.30;1.00
42187;DHT22;27858;51.414;0.018;2023-05-07T14:27:33;21.00;1.00
42187;DHT22;27858;51.414;0.018;2023-05-07T14:29:59;20.90;1.00
42187;DHT22;27858;51.414;0.018;2023-05-07T14:32:26;20.80;1.00
42187;DHT22;27858;51.414;0.018;2023-05-07T14:34:53;21.20;1.00
42187;DHT22;27858;51.414;0.018;2023-05-07T14:37:20;22.10;1.00
42187;DHT22;27858;51.414;0.018;2023-05-07T14:39:47;21.70;99.90
42187;DHT22;27858;51.414;0.018;2023-05-07T14:42:17;20.80;1.00
42187;DHT22;27858;51.414;0.018;2023-05-07T14:44:44;20.60;1.00
42187;DHT22;27858;51.414;0.018;2023-05-07T14:47:12;21.20;1.00
42187;DHT22;27858;51.414;0.018;2023-05-07T14:49:39;21.80;1.00
42187;DHT22;27858;51.414;0.018;2023-05-07T14:52:07;21.90;99.90
42187;DHT22;27858;51.414;0.018;2023-05-07T14:54:36;21.40;99.90
42187;DHT22;27858;51.414;0.018;2023-05-07T14:57:05;21.60;99.90
42187;DHT22;27858;51.414;0.018;2023-05-07T14:59:32;22.20;99.90
42187;DHT22;27858;51.414;0.018;2023-05-07T15:01:59;22.70;99.90
42187;DHT22;27858;51.414;0.018;2023-05-07T15:04:26;22.80;99.90
42187;DHT22;27858;51.414;0.018;2023-05-07T15:06:52;21.80;99.90
42187;DHT22;27858;51.414;0.018;2023-05-07T15:09:22;21.30;99.90
42187;DHT22;27858;51.414;0.018;2023-05-07T15:11:49;21.50;1.00
42187;DHT22;27858;51.414;0.018;2023-05-07T15:14:16;21.50;99.90
42187;DHT22;27858;51.414;0.018;2023-05-07T15:16:42;21.60;99.90
42187;DHT22;27858;51.414;0.018;2023-05-07T15:19:09;21.60;99.90
42187;DHT22;27858;51.414;0.018;2023-05-07T15:21:36;22.00;99.90
42187;DHT22;27858;51.414;0.018;2023-05-07T15:24:03;23.20;99.90
42187;DHT22;27858;51.414;0.018;2023-05-07T15:26:30;24.20;99.90
42187;DHT22;27858;51.414;0.018;2023-05-07T15:28:57;24.30;99.90
42187;DHT22;27858;51.414;0.018;2023-05-07T15:31:24;24.00;99.90
42187;DHT22;27858;51.414;0.018;2023-05-07T15:33:52;23.60;99.90
42187;DHT22;27858;51.414;0.018;2023-05-07T15:36:20;23.90;99.90
42187;DHT22;27858;51.414;0.018;2023-05-07T15:38:47;23.50;99.90
42187;DHT22;27858;51.414;0.018;2023-05-07T15:41:13;22.70;99.90
42187;DHT22;27858;51.414;0.018;2023-05-07T15:43:45;22.10;99.90
42187;DHT22;27858;51.414;0.018;2023-05-07T15:46:13;22.50;99.90
42187;DHT22;27858;51.414;0.018;2023-05-07T15:48:43;23.30;99.90
42187;DHT22;27858;51.414;0.018;2023-05-07T15:51:10;23.60;99.90
42187;DHT22;27858;51.414;0.018;2023-05-07T15:53:38;23.20;99.90
42187;DHT22;27858;51.414;0.018;2023-05-07T15:56:06;22.90;99.90